Pine Lake, Georgia
Current Conditions -  °F | °C
As of 12:53 AM on Monday 26 Jan 2015 (Local Time) from KPDK Reporting Station
Overcast Overcast  
Wind Chill:   Ceiling: 9500
Heat Index:   Visibility: 10mi
Dew Point:   Wind: 8mph
Humidity: 89%   Direction: 230°SW
Pressure: 29.72"   Gusts: NA
Location:  33.79°N, 84.21°W
Report Text: KPDK 260553Z AUTO 23007KT 10SM FEW080 OVC095 07/05 A2972 RMK AO2 SLP067 60005 T00670050 10122 20050 58007 $
Loading
Personal Weather Stations






























Interactive Weather Map New forecast layout! Learn more

10-Day Weather Forecast

Advertisements
Track Severe Weather on mobile